Time;durP1;ratioP1;P1;durP2;ratioP2;P2;SDS_P1;SDS_P2;PMS_P1;PMS_P2;Temp;Humidity;BMP_temperature;BMP_pressure;BME280_temperature;BME280_humidity;BME280_pressure;Samples;Min_cycle;Max_cycle;Signal;HPM_P1;HPM_P2
2022/07/16 00:02:37;;;;;;;;;;;15.50;99.90;;;;;;5072877;28;19958;-65
2022/07/16 00:05:03;;;;;;;;;;;15.50;99.90;;;;;;5073310;28;19948;-65
2022/07/16 00:07:28;;;;;;;;;;;15.50;99.90;;;;;;5073047;28;19951;-66
2022/07/16 00:09:54;;;;;;;;;;;15.50;99.90;;;;;;5072954;28;20366;-65
2022/07/16 00:12:19;;;;;;;;;;;15.40;99.90;;;;;;5073014;28;20368;-65
2022/07/16 00:14:45;;;;;;;;;;;15.50;99.90;;;;;;5072718;28;19920;-65
2022/07/16 00:17:10;;;;;;;;;;;15.40;99.90;;;;;;5072963;28;20294;-65
2022/07/16 00:19:36;;;;;;;;;;;15.40;99.90;;;;;;5072938;28;19908;-65
2022/07/16 00:22:01;;;;;;;;;;;15.30;99.90;;;;;;5056607;28;19955;-65
2022/07/16 00:24:27;;;;;;;;;;;15.30;99.90;;;;;;5076545;28;19908;-65
2022/07/16 00:26:52;;;;;;;;;;;15.20;99.90;;;;;;5076738;28;19909;-65
2022/07/16 00:29:18;;;;;;;;;;;15.30;99.90;;;;;;5076387;28;20401;-65
2022/07/16 00:31:45;;;;;;;;;;;15.30;99.90;;;;;;5058489;28;20003;-66
2022/07/16 00:34:10;;;;;;;;;;;15.40;99.90;;;;;;5076507;28;19960;-65
2022/07/16 00:36:36;;;;;;;;;;;15.50;99.90;;;;;;5076346;28;20287;-65
2022/07/16 00:39:03;;;;;;;;;;;15.50;99.90;;;;;;5076185;28;19916;-65
2022/07/16 00:41:28;;;;;;;;;;;15.50;99.90;;;;;;5076153;28;20355;-65
2022/07/16 00:43:59;;;;;;;;;;;15.50;99.90;;;;;;5076416;28;19915;-65
2022/07/16 00:46:25;;;;;;;;;;;15.50;99.90;;;;;;5076376;28;19908;-66
2022/07/16 00:48:50;;;;;;;;;;;15.50;99.90;;;;;;5076033;28;20011;-65
2022/07/16 00:51:16;;;;;;;;;;;15.50;99.90;;;;;;5076279;28;19909;-65
2022/07/16 00:53:42;;;;;;;;;;;15.50;99.90;;;;;;5075909;28;20007;-65
2022/07/16 00:56:09;;;;;;;;;;;15.50;99.90;;;;;;5076212;28;19909;-65
2022/07/16 00:58:37;;;;;;;;;;;15.50;99.90;;;;;;5076133;28;19916;-65
2022/07/16 01:01:03;;;;;;;;;;;15.50;99.90;;;;;;5075881;28;19915;-65
2022/07/16 01:03:29;;;;;;;;;;;15.60;99.90;;;;;;5075866;28;19909;-65
2022/07/16 01:05:55;;;;;;;;;;;15.50;99.90;;;;;;5076043;28;20321;-65
2022/07/16 01:08:20;;;;;;;;;;;15.60;99.90;;;;;;5075944;28;19937;-65
2022/07/16 01:10:46;;;;;;;;;;;15.60;99.90;;;;;;5075909;28;19998;-65
2022/07/16 01:13:12;;;;;;;;;;;15.60;99.90;;;;;;5075466;28;19923;-65
2022/07/16 01:15:38;;;;;;;;;;;15.60;99.90;;;;;;5075749;28;20358;-65
2022/07/16 01:18:03;;;;;;;;;;;15.60;99.90;;;;;;5075535;28;19908;-66
2022/07/16 01:20:29;;;;;;;;;;;15.60;99.90;;;;;;5075737;28;20382;-65
2022/07/16 01:22:55;;;;;;;;;;;15.60;99.90;;;;;;5075696;28;19944;-65
2022/07/16 01:25:21;;;;;;;;;;;15.60;99.90;;;;;;5075399;28;19916;-65
2022/07/16 01:27:46;;;;;;;;;;;15.60;99.90;;;;;;5075300;28;19916;-65
2022/07/16 01:30:12;;;;;;;;;;;15.60;99.90;;;;;;5075300;28;19908;-65
2022/07/16 01:32:38;;;;;;;;;;;15.70;99.90;;;;;;5075509;28;19909;-66
2022/07/16 01:35:03;;;;;;;;;;;15.60;99.90;;;;;;5075330;28;19912;-65
2022/07/16 01:37:29;;;;;;;;;;;15.70;99.90;;;;;;5075401;28;19908;-66
2022/07/16 01:39:54;;;;;;;;;;;15.70;99.90;;;;;;5075315;28;20319;-65
2022/07/16 01:42:20;;;;;;;;;;;15.70;99.90;;;;;;5075293;28;19915;-65
2022/07/16 01:44:45;;;;;;;;;;;15.80;99.90;;;;;;5075237;28;19916;-65
2022/07/16 01:47:13;;;;;;;;;;;15.80;99.90;;;;;;5074924;28;19965;-65
2022/07/16 01:49:39;;;;;;;;;;;15.70;99.90;;;;;;5074973;28;19956;-65
2022/07/16 01:52:13;;;;;;;;;;;15.70;99.90;;;;;;5075079;28;19917;-65
2022/07/16 01:54:41;;;;;;;;;;;15.70;99.90;;;;;;5074992;28;19912;-65
2022/07/16 01:57:06;;;;;;;;;;;15.70;99.90;;;;;;5075008;28;19930;-65
2022/07/16 01:59:32;;;;;;;;;;;15.70;99.90;;;;;;5074967;28;19995;-65
2022/07/16 02:01:57;;;;;;;;;;;15.70;99.90;;;;;;5074922;28;20278;-65
2022/07/16 02:04:23;;;;;;;;;;;15.70;99.90;;;;;;5074878;28;19908;-66
2022/07/16 02:06:48;;;;;;;;;;;15.70;99.90;;;;;;5074814;28;19991;-66
2022/07/16 02:09:14;;;;;;;;;;;15.70;99.90;;;;;;5074484;28;19909;-65
2022/07/16 02:11:39;;;;;;;;;;;15.80;99.90;;;;;;5074718;28;20321;-66
2022/07/16 02:14:05;;;;;;;;;;;15.80;99.90;;;;;;5074242;28;19963;-66
2022/07/16 02:16:30;;;;;;;;;;;15.80;99.90;;;;;;5074578;28;20281;-65
2022/07/16 02:18:56;;;;;;;;;;;15.80;99.90;;;;;;5074404;28;19915;-65
2022/07/16 02:21:21;;;;;;;;;;;15.90;99.90;;;;;;5074271;28;19912;-65
2022/07/16 02:23:47;;;;;;;;;;;15.90;99.90;;;;;;5074208;28;20007;-65
2022/07/16 02:26:12;;;;;;;;;;;15.90;99.90;;;;;;5074201;28;19999;-65
2022/07/16 02:28:38;;;;;;;;;;;16.00;99.90;;;;;;5074114;28;20286;-65
2022/07/16 02:31:03;;;;;;;;;;;16.00;99.90;;;;;;5074141;28;19908;-65
2022/07/16 02:33:29;;;;;;;;;;;16.00;99.90;;;;;;5074082;28;19916;-66
2022/07/16 02:35:54;;;;;;;;;;;16.00;99.90;;;;;;5073993;28;19967;-66
2022/07/16 02:38:20;;;;;;;;;;;16.10;99.90;;;;;;5073979;28;19948;-65
2022/07/16 02:40:45;;;;;;;;;;;16.10;99.90;;;;;;5073935;28;20320;-65
2022/07/16 02:43:11;;;;;;;;;;;16.20;99.90;;;;;;5074187;28;19912;-65
2022/07/16 02:45:38;;;;;;;;;;;16.20;99.90;;;;;;5073518;28;19987;-65
2022/07/16 02:48:03;;;;;;;;;;;16.20;99.90;;;;;;5072947;28;19998;-66
2022/07/16 02:50:29;;;;;;;;;;;16.20;99.90;;;;;;5073935;28;19908;-65
2022/07/16 02:52:54;;;;;;;;;;;16.20;99.90;;;;;;5072677;28;19916;-65
2022/07/16 02:55:20;;;;;;;;;;;16.20;99.90;;;;;;5073972;28;20367;-65
2022/07/16 02:57:47;;;;;;;;;;;16.10;99.90;;;;;;5073723;28;20389;-66
2022/07/16 03:00:13;;;;;;;;;;;16.10;99.90;;;;;;5073713;28;19915;-65
2022/07/16 03:02:39;;;;;;;;;;;16.10;99.90;;;;;;5073974;28;20375;-65
2022/07/16 03:05:05;;;;;;;;;;;16.10;99.90;;;;;;5073899;28;19912;-66
2022/07/16 03:07:30;;;;;;;;;;;16.10;99.90;;;;;;5073888;28;19915;-66
2022/07/16 03:09:56;;;;;;;;;;;16.10;99.90;;;;;;5073530;28;19912;-65
2022/07/16 03:12:21;;;;;;;;;;;16.10;99.90;;;;;;5073832;28;19913;-65
2022/07/16 03:14:47;;;;;;;;;;;16.20;99.90;;;;;;5072059;28;20287;-66
2022/07/16 03:17:12;;;;;;;;;;;16.20;99.90;;;;;;5073789;28;19908;-64
2022/07/16 03:19:38;;;;;;;;;;;16.30;99.90;;;;;;5073595;28;19915;-65
2022/07/16 03:22:04;;;;;;;;;;;16.40;99.90;;;;;;5073486;28;20482;-66
2022/07/16 03:24:29;;;;;;;;;;;16.40;99.90;;;;;;5073683;28;19908;-65
2022/07/16 03:26:55;;;;;;;;;;;16.40;99.90;;;;;;5073436;28;20362;-65
2022/07/16 03:29:21;;;;;;;;;;;16.50;99.90;;;;;;5073408;28;19909;-65
2022/07/16 03:31:46;;;;;;;;;;;16.50;99.90;;;;;;5073335;28;19909;-66
2022/07/16 03:34:12;;;;;;;;;;;16.50;99.90;;;;;;5073546;28;19918;-65
2022/07/16 03:36:37;;;;;;;;;;;16.50;99.90;;;;;;5073348;28;19913;-65
2022/07/16 03:39:04;;;;;;;;;;;16.60;99.90;;;;;;5073307;28;19908;-65
2022/07/16 03:41:34;;;;;;;;;;;16.60;99.90;;;;;;5073313;28;19915;-66
2022/07/16 03:44:01;;;;;;;;;;;16.60;99.90;;;;;;5073550;28;19909;-65
2022/07/16 03:46:26;;;;;;;;;;;16.60;99.90;;;;;;5073576;28;20374;-65
2022/07/16 03:48:51;;;;;;;;;;;16.60;99.90;;;;;;5073268;28;19930;-65
2022/07/16 03:51:17;;;;;;;;;;;16.70;99.90;;;;;;5073483;28;20278;-65
2022/07/16 03:53:43;;;;;;;;;;;16.70;99.90;;;;;;5073363;28;19997;-65
2022/07/16 03:56:09;;;;;;;;;;;16.70;99.90;;;;;;5073579;28;19916;-65
2022/07/16 03:58:35;;;;;;;;;;;16.70;99.90;;;;;;5077285;28;19909;-65
2022/07/16 04:01:00;;;;;;;;;;;16.70;99.90;;;;;;5077244;28;19909;-65
2022/07/16 04:03:26;;;;;;;;;;;16.60;99.90;;;;;;5075726;28;19958;-65
2022/07/16 04:05:51;;;;;;;;;;;16.60;99.90;;;;;;5076806;28;19962;-65
2022/07/16 04:08:17;;;;;;;;;;;16.60;99.90;;;;;;5076859;28;19912;-66
2022/07/16 04:10:43;;;;;;;;;;;16.60;99.90;;;;;;5058819;28;19916;-65
2022/07/16 04:13:08;;;;;;;;;;;16.60;99.90;;;;;;5076754;28;19915;-66
2022/07/16 04:15:34;;;;;;;;;;;16.60;99.90;;;;;;5076823;28;19934;-66
2022/07/16 04:17:59;;;;;;;;;;;16.70;99.90;;;;;;5076903;28;20282;-65
2022/07/16 04:20:25;;;;;;;;;;;16.70;99.90;;;;;;5076584;28;19909;-65
2022/07/16 04:22:50;;;;;;;;;;;16.70;99.90;;;;;;5076554;28;19917;-65
2022/07/16 04:25:16;;;;;;;;;;;16.70;99.90;;;;;;5076471;28;19916;-65
2022/07/16 04:27:41;;;;;;;;;;;16.60;99.90;;;;;;5076464;28;19920;-65
2022/07/16 04:30:07;;;;;;;;;;;16.70;99.90;;;;;;5076688;28;20361;-65
2022/07/16 04:32:33;;;;;;;;;;;16.60;99.90;;;;;;5076364;28;19909;-65
2022/07/16 04:34:59;;;;;;;;;;;16.80;99.90;;;;;;5076277;28;19913;-65
2022/07/16 04:37:25;;;;;;;;;;;16.80;99.90;;;;;;5076526;28;19916;-65
2022/07/16 04:39:51;;;;;;;;;;;16.80;99.90;;;;;;5076259;28;19912;-65
2022/07/16 04:42:16;;;;;;;;;;;16.90;99.90;;;;;;5076459;28;19912;-65
2022/07/16 04:44:42;;;;;;;;;;;16.90;99.90;;;;;;5076180;28;19958;-65
2022/07/16 04:47:07;;;;;;;;;;;17.00;99.90;;;;;;5076087;28;19908;-66
2022/07/16 04:49:33;;;;;;;;;;;17.00;99.90;;;;;;5076361;28;19915;-65
2022/07/16 04:51:58;;;;;;;;;;;17.10;99.90;;;;;;5076018;28;20359;-66
2022/07/16 04:54:24;;;;;;;;;;;17.10;99.90;;;;;;5075849;28;19913;-65
2022/07/16 04:56:49;;;;;;;;;;;17.10;99.90;;;;;;5076250;28;19938;-64
2022/07/16 04:59:15;;;;;;;;;;;17.10;99.90;;;;;;5075898;28;19923;-65
2022/07/16 05:01:40;;;;;;;;;;;17.20;99.90;;;;;;5075868;28;19993;-66
2022/07/16 05:04:06;;;;;;;;;;;17.20;99.90;;;;;;5075791;28;20434;-64
2022/07/16 05:06:31;;;;;;;;;;;17.20;99.90;;;;;;5074530;28;19913;-66
2022/07/16 05:08:57;;;;;;;;;;;17.30;99.90;;;;;;5075836;28;19909;-65
2022/07/16 05:11:22;;;;;;;;;;;17.40;99.90;;;;;;5075924;28;19908;-64
2022/07/16 05:13:50;;;;;;;;;;;17.40;99.90;;;;;;5075345;28;20363;-65
2022/07/16 05:16:15;;;;;;;;;;;17.40;99.90;;;;;;5075517;28;19916;-64
2022/07/16 05:18:41;;;;;;;;;;;17.50;99.90;;;;;;5075807;28;19912;-65
2022/07/16 05:21:07;;;;;;;;;;;17.50;99.90;;;;;;5075566;28;19912;-65
2022/07/16 05:23:33;;;;;;;;;;;17.60;99.90;;;;;;5075409;28;20286;-66
2022/07/16 05:25:58;;;;;;;;;;;17.60;99.90;;;;;;5075629;28;20424;-65
2022/07/16 05:28:24;;;;;;;;;;;17.60;99.90;;;;;;5075618;28;19909;-66
2022/07/16 05:30:49;;;;;;;;;;;17.60;99.90;;;;;;5075573;28;19908;-66
2022/07/16 05:33:15;;;;;;;;;;;17.60;99.90;;;;;;5075229;28;19912;-66
2022/07/16 05:35:40;;;;;;;;;;;17.70;99.90;;;;;;5075160;28;20007;-66
2022/07/16 05:38:06;;;;;;;;;;;17.90;99.90;;;;;;5075199;28;19908;-66
2022/07/16 05:40:32;;;;;;;;;;;18.30;99.90;;;;;;5075376;28;19912;-67
2022/07/16 05:42:57;;;;;;;;;;;18.40;99.90;;;;;;5075091;28;19909;-66
2022/07/16 05:45:23;;;;;;;;;;;18.50;99.90;;;;;;5075008;28;19944;-66
2022/07/16 05:47:48;;;;;;;;;;;18.50;99.90;;;;;;5057060;28;19915;-66
2022/07/16 05:50:14;;;;;;;;;;;18.40;99.90;;;;;;5075156;28;19958;-66
2022/07/16 05:52:39;;;;;;;;;;;18.50;99.90;;;;;;5075130;28;19912;-66
2022/07/16 05:55:05;;;;;;;;;;;18.70;99.90;;;;;;5074719;28;19913;-66
2022/07/16 05:57:31;;;;;;;;;;;19.20;99.90;;;;;;5074774;28;19912;-66
2022/07/16 05:59:56;;;;;;;;;;;19.30;99.90;;;;;;5056857;28;19909;-65
2022/07/16 06:02:22;;;;;;;;;;;19.40;99.90;;;;;;5074680;28;19962;-65
2022/07/16 06:04:47;;;;;;;;;;;19.50;99.90;;;;;;5074552;28;19916;-66
2022/07/16 06:07:12;;;;;;;;;;;19.40;99.90;;;;;;5074828;28;20003;-66
2022/07/16 06:09:38;;;;;;;;;;;19.10;99.90;;;;;;5074602;28;19909;-66
2022/07/16 06:12:04;;;;;;;;;;;18.90;99.90;;;;;;5074385;28;20386;-66
2022/07/16 06:14:29;;;;;;;;;;;18.90;99.90;;;;;;5074252;28;19920;-67
2022/07/16 06:16:55;;;;;;;;;;;19.00;99.90;;;;;;5074217;28;19908;-66
2022/07/16 06:19:20;;;;;;;;;;;19.10;99.90;;;;;;5073500;28;19938;-66
2022/07/16 06:21:46;;;;;;;;;;;18.90;99.90;;;;;;5074198;28;20390;-66
2022/07/16 06:24:11;;;;;;;;;;;18.70;99.90;;;;;;5074470;28;19912;-66
2022/07/16 06:26:36;;;;;;;;;;;18.70;99.90;;;;;;5073080;28;19943;-65
2022/07/16 06:29:02;;;;;;;;;;;18.90;99.90;;;;;;5074381;28;19909;-66
2022/07/16 06:31:27;;;;;;;;;;;18.90;99.90;;;;;;5074378;28;19958;-66
2022/07/16 06:33:53;;;;;;;;;;;19.40;99.90;;;;;;5073987;28;20274;-65
2022/07/16 06:36:19;;;;;;;;;;;;;;;;;;5074303;28;19908;-65
2022/07/16 06:38:44;;;;;;;;;;;19.90;99.90;;;;;;5073931;28;20278;-65
2022/07/16 06:41:10;;;;;;;;;;;19.40;99.90;;;;;;5074222;28;19999;-65
2022/07/16 06:43:36;;;;;;;;;;;19.40;99.90;;;;;;5073909;28;19909;-65
2022/07/16 06:46:01;;;;;;;;;;;19.20;99.90;;;;;;5073896;28;19930;-65
2022/07/16 06:48:27;;;;;;;;;;;19.20;99.90;;;;;;5074097;28;19908;-65
2022/07/16 06:50:53;;;;;;;;;;;19.20;99.90;;;;;;5073772;28;19908;-65
2022/07/16 06:53:19;;;;;;;;;;;19.50;99.90;;;;;;5074050;28;20282;-65
2022/07/16 06:55:44;;;;;;;;;;;19.50;99.90;;;;;;5073718;28;19913;-65
2022/07/16 06:58:10;;;;;;;;;;;19.80;99.90;;;;;;5073648;28;20003;-65
2022/07/16 07:00:35;;;;;;;;;;;19.90;99.90;;;;;;5073936;28;19916;-65
2022/07/16 07:03:01;;;;;;;;;;;19.60;99.90;;;;;;5072402;28;20007;-65
2022/07/16 07:05:26;;;;;;;;;;;20.00;99.90;;;;;;5073893;28;19916;-65
2022/07/16 07:07:51;;;;;;;;;;;20.90;99.90;;;;;;5073579;28;20476;-65
2022/07/16 07:10:19;;;;;;;;;;;21.80;99.90;;;;;;5073823;28;19913;-65
2022/07/16 07:12:45;;;;;;;;;;;21.10;99.90;;;;;;5073554;28;19923;-65
2022/07/16 07:15:11;;;;;;;;;;;21.10;99.90;;;;;;5073302;28;20285;-66
2022/07/16 07:17:36;;;;;;;;;;;20.60;99.90;;;;;;5073586;28;19999;-65
2022/07/16 07:20:03;;;;;;;;;;;20.80;99.90;;;;;;5073695;28;19919;-65
2022/07/16 07:22:29;;;;;;;;;;;22.10;99.90;;;;;;5073467;28;19947;-65
2022/07/16 07:24:54;;;;;;;;;;;22.60;99.90;;;;;;5073734;28;20251;-66
2022/07/16 07:27:20;;;;;;;;;;;22.40;99.90;;;;;;5073462;28;19915;-65
2022/07/16 07:29:45;;;;;;;;;;;22.10;99.90;;;;;;5073693;28;19915;-66
2022/07/16 07:32:11;;;;;;;;;;;22.60;99.90;;;;;;5077259;28;19923;-66
2022/07/16 07:34:36;;;;;;;;;;;24.00;99.90;;;;;;5077718;28;19913;-66
2022/07/16 07:37:02;;;;;;;;;;;24.00;99.90;;;;;;5077758;28;19912;-66
2022/07/16 07:39:27;;;;;;;;;;;24.80;99.90;;;;;;5077396;28;19909;-64
2022/07/16 07:41:53;;;;;;;;;;;26.20;96.90;;;;;;5077642;28;19951;-63
2022/07/16 07:44:18;;;;;;;;;;;26.30;96.60;;;;;;5077354;28;20350;-64
2022/07/16 07:46:44;;;;;;;;;;;26.40;94.00;;;;;;5077538;28;19958;-63
2022/07/16 07:49:11;;;;;;;;;;;23.90;95.40;;;;;;5077175;28;19908;-63
2022/07/16 07:51:36;;;;;;;;;;;22.50;98.40;;;;;;5077136;28;20412;-66
2022/07/16 07:54:02;;;;;;;;;;;21.90;99.90;;;;;;5077125;28;19912;-66
2022/07/16 07:56:27;;;;;;;;;;;22.80;98.80;;;;;;5077075;28;20294;-63
2022/07/16 07:58:53;;;;;;;;;;;24.70;96.70;;;;;;5059039;28;19951;-63
2022/07/16 08:01:18;;;;;;;;;;;25.10;94.60;;;;;;5076972;28;19915;-63
2022/07/16 08:03:44;;;;;;;;;;;24.50;95.60;;;;;;5076945;28;20003;-63
2022/07/16 08:06:09;;;;;;;;;;;24.10;96.90;;;;;;5076850;28;19909;-63
2022/07/16 08:08:35;;;;;;;;;;;23.40;97.20;;;;;;5077024;28;19909;-65
2022/07/16 08:11:00;;;;;;;;;;;23.90;95.50;;;;;;5076735;28;20274;-65
2022/07/16 08:13:26;;;;;;;;;;;24.40;94.70;;;;;;5076768;28;19924;-63
2022/07/16 08:15:51;;;;;;;;;;;25.30;92.60;;;;;;5076565;28;20374;-63
2022/07/16 08:18:16;;;;;;;;;;;25.60;91.70;;;;;;5076578;28;19915;-63
2022/07/16 08:20:42;;;;;;;;;;;24.70;93.30;;;;;;5076864;28;19915;-63
2022/07/16 08:23:07;;;;;;;;;;;24.30;92.60;;;;;;5076608;28;19957;-63
2022/07/16 08:25:48;;;;;;;;;;;24.60;92.90;;;;;;5076521;28;19909;-63
2022/07/16 08:28:15;;;;;;;;;;;24.60;91.60;;;;;;5076468;28;19908;-63
2022/07/16 08:30:41;;;;;;;;;;;24.90;91.20;;;;;;5076690;28;20058;-63
2022/07/16 08:33:06;;;;;;;;;;;25.30;89.80;;;;;;5076399;28;19908;-65
2022/07/16 08:35:32;;;;;;;;;;;25.60;88.90;;;;;;5076552;28;19919;-63
2022/07/16 08:37:58;;;;;;;;;;;25.70;89.60;;;;;;5076327;28;19991;-64
2022/07/16 08:40:23;;;;;;;;;;;25.00;90.20;;;;;;5076194;28;19920;-63
2022/07/16 08:42:49;;;;;;;;;;;24.00;91.60;;;;;;5057505;28;19909;-64
2022/07/16 08:45:17;;;;;;;;;;;22.80;93.30;;;;;;5076123;28;19916;-63
2022/07/16 08:47:43;;;;;;;;;;;22.40;94.80;;;;;;5076083;28;19948;-64
2022/07/16 08:50:10;;;;;;;;;;;23.60;94.30;;;;;;5076087;28;19932;-64
2022/07/16 08:52:40;;;;;;;;;;;24.90;90.40;;;;;;5076255;28;19985;-64
2022/07/16 08:55:06;;;;;;;;;;;26.20;87.20;;;;;;5074733;28;19912;-64
2022/07/16 08:57:32;;;;;;;;;;;26.70;82.50;;;;;;5075933;28;19912;-64
2022/07/16 08:59:58;;;;;;;;;;;26.20;82.00;;;;;;5075900;28;20007;-64
2022/07/16 09:02:23;;;;;;;;;;;26.30;82.30;;;;;;5076073;28;19971;-66
2022/07/16 09:04:49;;;;;;;;;;;26.00;81.10;;;;;;5076084;28;19913;-66
2022/07/16 09:07:15;;;;;;;;;;;24.90;82.50;;;;;;5075974;28;19954;-66
2022/07/16 09:09:41;;;;;;;;;;;25.30;82.40;;;;;;5075950;28;19908;-66
2022/07/16 09:12:06;;;;;;;;;;;25.00;83.60;;;;;;5075956;28;19916;-66
2022/07/16 09:14:32;;;;;;;;;;;23.90;87.10;;;;;;5075311;28;19979;-67
2022/07/16 09:16:57;;;;;;;;;;;23.80;88.30;;;;;;5075880;28;19909;-67
2022/07/16 09:19:24;;;;;;;;;;;23.40;87.10;;;;;;5075855;28;19909;-67
2022/07/16 09:22:09;;;;;;;;;;;23.90;85.10;;;;;;5075781;28;20332;-67
2022/07/16 09:24:40;;;;;;;;;;;24.60;83.40;;;;;;5075345;28;20003;-67
2022/07/16 09:27:09;;;;;;;;;;;26.30;80.30;;;;;;5075665;28;19973;-67
2022/07/16 09:29:36;;;;;;;;;;;26.30;77.20;;;;;;5075572;28;20282;-67
2022/07/16 09:32:02;;;;;;;;;;;26.20;78.70;;;;;;5075245;28;20133;-67
2022/07/16 09:34:28;;;;;;;;;;;25.80;77.60;;;;;;5075156;28;19916;-67
2022/07/16 09:36:57;;;;;;;;;;;25.10;81.40;;;;;;5075442;28;19915;-67
2022/07/16 09:39:22;;;;;;;;;;;25.30;81.10;;;;;;5075127;28;20007;-67
2022/07/16 09:41:48;;;;;;;;;;;25.30;80.20;;;;;;5075332;28;19962;-67
2022/07/16 09:44:22;;;;;;;;;;;25.60;78.90;;;;;;5075367;28;19916;-67
2022/07/16 09:47:07;;;;;;;;;;;25.30;78.50;;;;;;5075309;28;20473;-67
2022/07/16 09:49:36;;;;;;;;;;;26.30;76.10;;;;;;5074856;28;19999;-67
2022/07/16 09:52:02;;;;;;;;;;;26.40;75.40;;;;;;5075102;28;19916;-67
2022/07/16 09:54:31;;;;;;;;;;;25.50;76.80;;;;;;5073699;28;19912;-67
2022/07/16 09:57:05;;;;;;;;;;;24.70;79.60;;;;;;5075030;28;19978;-67
2022/07/16 09:59:31;;;;;;;;;;;24.10;81.60;;;;;;5074964;28;19909;-67
2022/07/16 10:01:57;;;;;;;;;;;24.40;83.20;;;;;;5074628;28;19915;-67
2022/07/16 10:04:23;;;;;;;;;;;24.30;82.90;;;;;;5074592;28;20359;-67
2022/07/16 10:06:49;;;;;;;;;;;25.00;83.90;;;;;;5073683;28;19988;-67
2022/07/16 10:09:14;;;;;;;;;;;25.40;79.50;;;;;;5074520;28;19955;-67
2022/07/16 10:11:42;;;;;;;;;;;25.70;78.40;;;;;;5074681;28;19915;-67
2022/07/16 10:14:08;;;;;;;;;;;25.70;77.80;;;;;;5074332;28;19999;-67
2022/07/16 10:16:41;;;;;;;;;;;24.90;77.00;;;;;;5074648;28;19916;-67
2022/07/16 10:19:07;;;;;;;;;;;24.70;78.30;;;;;;5074740;28;19916;-67
2022/07/16 10:21:32;;;;;;;;;;;25.00;77.80;;;;;;5074526;28;20007;-67
2022/07/16 10:24:07;;;;;;;;;;;25.80;75.00;;;;;;5074420;28;19915;-67
2022/07/16 10:26:33;;;;;;;;;;;25.40;76.20;;;;;;5074228;28;19915;-67
2022/07/16 10:28:59;;;;;;;;;;;26.00;77.60;;;;;;5074011;28;19915;-67
2022/07/16 10:31:41;;;;;;;;;;;25.50;77.30;;;;;;5074304;28;19999;-67
2022/07/16 10:36:53;;;;;;;;;;;25.30;75.50;;;;;;5071132;28;19913;-68
2022/07/16 10:39:19;;;;;;;;;;;26.20;74.70;;;;;;5070923;28;19966;-68
2022/07/16 10:41:48;;;;;;;;;;;26.80;73.00;;;;;;5071126;28;19944;-68
2022/07/16 10:44:13;;;;;;;;;;;26.50;71.80;;;;;;5071070;28;19962;-68
2022/07/16 10:46:55;;;;;;;;;;;26.80;73.70;;;;;;5071021;28;19909;-68
2022/07/16 10:49:22;;;;;;;;;;;26.60;72.10;;;;;;5070656;28;19958;-68
2022/07/16 10:51:56;;;;;;;;;;;24.80;75.20;;;;;;5070977;28;19917;-67
2022/07/16 10:54:22;;;;;;;;;;;23.70;78.20;;;;;;5070682;28;19954;-67
2022/07/16 10:56:50;;;;;;;;;;;23.10;80.90;;;;;;5070581;28;19913;-67
2022/07/16 10:59:19;;;;;;;;;;;23.50;81.40;;;;;;5070773;28;20413;-67
2022/07/16 11:01:46;;;;;;;;;;;23.70;79.50;;;;;;5070722;28;19909;-68
2022/07/16 11:04:13;;;;;;;;;;;24.20;79.80;;;;;;5070691;28;20260;-68
2022/07/16 11:06:40;;;;;;;;;;;23.80;80.20;;;;;;5086073;28;19909;-68
2022/07/16 11:09:06;;;;;;;;;;;23.10;81.40;;;;;;5070660;28;19916;-67
2022/07/16 11:11:36;;;;;;;;;;;23.10;81.90;;;;;;5070603;28;19909;-67
2022/07/16 11:14:02;;;;;;;;;;;23.70;81.00;;;;;;5070545;28;19909;-67
2022/07/16 11:16:28;;;;;;;;;;;24.00;78.90;;;;;;5070423;28;20408;-67
2022/07/16 11:18:53;;;;;;;;;;;24.00;78.20;;;;;;5070077;28;19909;-67
2022/07/16 11:21:19;;;;;;;;;;;23.80;78.90;;;;;;5070164;28;19908;-67
2022/07/16 11:23:47;;;;;;;;;;;24.30;77.50;;;;;;5069992;28;19963;-67
2022/07/16 11:26:13;;;;;;;;;;;24.50;75.20;;;;;;5070267;28;20330;-67
2022/07/16 11:28:58;;;;;;;;;;;24.60;75.80;;;;;;5070146;28;19916;-67
2022/07/16 11:31:25;;;;;;;;;;;23.80;76.00;;;;;;5070112;28;20354;-67
2022/07/16 11:33:52;;;;;;;;;;;23.50;78.50;;;;;;5070067;28;19996;-67
2022/07/16 11:36:17;;;;;;;;;;;23.80;77.00;;;;;;5085475;28;19920;-67
2022/07/16 11:38:43;;;;;;;;;;;24.20;75.70;;;;;;5089970;28;19957;-67
2022/07/16 11:41:08;;;;;;;;;;;24.40;73.20;;;;;;5090211;28;19915;-67
2022/07/16 11:43:34;;;;;;;;;;;23.80;73.50;;;;;;5090248;28;19908;-67
2022/07/16 11:46:00;;;;;;;;;;;24.50;72.60;;;;;;5089492;28;20370;-67
2022/07/16 11:48:34;;;;;;;;;;;24.50;69.50;;;;;;5058280;28;19932;-67
2022/07/16 11:51:05;;;;;;;;;;;24.10;70.10;;;;;;5058880;28;20278;-67
2022/07/16 11:53:33;;;;;;;;;;;24.40;71.70;;;;;;5076445;28;19916;-67
2022/07/16 11:55:59;;;;;;;;;;;24.00;73.00;;;;;;5076340;28;19920;-67
2022/07/16 11:58:25;;;;;;;;;;;23.60;74.80;;;;;;5076381;28;20351;-67
2022/07/16 12:00:50;;;;;;;;;;;23.60;75.20;;;;;;5076373;28;19909;-67
2022/07/16 12:03:16;;;;;;;;;;;23.50;74.20;;;;;;5076278;28;19958;-67
2022/07/16 12:05:42;;;;;;;;;;;23.60;74.80;;;;;;5076063;28;19912;-67
2022/07/16 12:08:07;;;;;;;;;;;24.10;72.60;;;;;;5076177;28;20264;-67
2022/07/16 12:10:33;;;;;;;;;;;24.50;71.20;;;;;;5075942;28;20298;-67
2022/07/16 12:13:00;;;;;;;;;;;24.60;71.00;;;;;;5076061;28;19909;-67
2022/07/16 12:15:26;;;;;;;;;;;24.60;71.20;;;;;;5075681;28;19912;-67
2022/07/16 12:17:51;;;;;;;;;;;24.80;70.90;;;;;;5075806;28;20003;-67
2022/07/16 12:22:59;;;;;;;;;;;24.20;73.40;;;;;;5008031;28;19918;-67
2022/07/16 12:25:31;;;;;;;;;;;24.30;70.40;;;;;;5008075;28;19921;-67
2022/07/16 12:28:01;;;;;;;;;;;24.00;70.60;;;;;;5007815;28;19914;-67
2022/07/16 12:30:29;;;;;;;;;;;24.50;70.70;;;;;;5007782;28;19917;-67
2022/07/16 12:32:55;;;;;;;;;;;24.50;69.50;;;;;;5007999;28;19914;-67
2022/07/16 12:35:40;;;;;;;;;;;24.50;69.80;;;;;;5007965;28;19932;-67
2022/07/16 12:38:06;;;;;;;;;;;24.80;70.70;;;;;;5007816;28;19913;-68
2022/07/16 12:40:32;;;;;;;;;;;25.20;70.40;;;;;;5007511;28;20257;-67
2022/07/16 12:42:59;;;;;;;;;;;25.40;70.30;;;;;;5007740;28;20037;-67
2022/07/16 12:45:24;;;;;;;;;;;24.80;69.10;;;;;;5007772;28;19959;-67
2022/07/16 12:47:50;;;;;;;;;;;24.70;68.90;;;;;;5007721;28;19910;-67
2022/07/16 12:50:16;;;;;;;;;;;24.40;70.10;;;;;;5007756;28;20383;-67
2022/07/16 12:52:42;;;;;;;;;;;24.10;70.50;;;;;;5007671;28;19959;-67
2022/07/16 13:00:38;;;;;;;;;;;25.10;70.30;;;;;;5007093;28;19917;-67
2022/07/16 13:03:04;;;;;;;;;;;24.60;70.50;;;;;;5007513;28;19909;-67
2022/07/16 13:05:30;;;;;;;;;;;25.10;69.50;;;;;;5007551;28;20052;-67
2022/07/16 13:07:56;;;;;;;;;;;24.80;69.00;;;;;;5007441;28;19910;-67
2022/07/16 13:10:22;;;;;;;;;;;24.60;68.80;;;;;;5007418;28;19910;-67
2022/07/16 13:12:47;;;;;;;;;;;24.80;69.90;;;;;;5007117;28;19949;-67
2022/07/16 13:15:13;;;;;;;;;;;24.90;68.90;;;;;;5007312;28;19917;-67
2022/07/16 13:17:38;;;;;;;;;;;24.70;69.20;;;;;;5007078;28;20394;-67
2022/07/16 13:20:04;;;;;;;;;;;24.60;69.40;;;;;;5005851;28;19917;-67
2022/07/16 13:22:30;;;;;;;;;;;24.20;68.50;;;;;;5023446;28;19927;-67
2022/07/16 13:24:55;;;;;;;;;;;24.20;70.50;;;;;;5026902;28;19910;-67
2022/07/16 13:27:21;;;;;;;;;;;24.30;69.00;;;;;;5009016;28;19917;-67
2022/07/16 13:29:46;;;;;;;;;;;24.30;68.00;;;;;;5008912;28;20336;-67
2022/07/16 13:32:12;;;;;;;;;;;24.40;68.30;;;;;;5024981;28;20019;-67
2022/07/16 13:34:37;;;;;;;;;;;24.70;68.40;;;;;;5013379;28;19910;-67
2022/07/16 13:37:03;;;;;;;;;;;24.90;68.60;;;;;;5013611;28;20116;-67
2022/07/16 13:39:29;;;;;;;;;;;24.60;67.70;;;;;;5013550;28;19910;-67
2022/07/16 13:41:55;;;;;;;;;;;24.60;66.90;;;;;;5013126;28;20008;-67
2022/07/16 13:44:20;;;;;;;;;;;24.80;66.60;;;;;;5013451;28;19994;-67
2022/07/16 13:46:46;;;;;;;;;;;24.90;66.60;;;;;;5013202;28;19921;-67
2022/07/16 13:49:13;;;;;;;;;;;24.80;67.10;;;;;;5013391;28;19910;-67
2022/07/16 13:51:39;;;;;;;;;;;24.60;66.50;;;;;;4996143;28;19959;-67
2022/07/16 13:54:04;;;;;;;;;;;24.20;66.90;;;;;;4995585;28;19914;-67
2022/07/16 13:56:30;;;;;;;;;;;24.10;68.20;;;;;;5013064;28;19910;-67
2022/07/16 13:58:55;;;;;;;;;;;24.50;68.00;;;;;;5013200;28;19970;-67
2022/07/16 14:01:21;;;;;;;;;;;24.00;68.00;;;;;;5012854;28;20420;-67
2022/07/16 14:03:46;;;;;;;;;;;24.10;69.40;;;;;;5013194;28;19964;-67
2022/07/16 14:06:11;;;;;;;;;;;24.40;69.00;;;;;;5012852;28;19916;-67
2022/07/16 14:08:37;;;;;;;;;;;24.50;67.50;;;;;;5013131;28;19910;-67
2022/07/16 14:11:02;;;;;;;;;;;24.30;68.40;;;;;;5013071;28;19910;-67
2022/07/16 14:13:28;;;;;;;;;;;24.60;66.70;;;;;;4995337;28;19917;-67
2022/07/16 14:15:54;;;;;;;;;;;23.70;66.80;;;;;;5012789;28;19921;-67
2022/07/16 14:18:20;;;;;;;;;;;24.10;67.40;;;;;;5012673;28;19910;-67
2022/07/16 14:20:45;;;;;;;;;;;24.50;66.60;;;;;;5012667;28;20008;-67
2022/07/16 14:23:11;;;;;;;;;;;24.40;65.30;;;;;;5012661;28;19993;-67
2022/07/16 14:25:37;;;;;;;;;;;24.50;64.80;;;;;;5012912;28;19917;-67